createdAt,value
2019-05-03T00:02:54.378Z,76.31
2019-05-03T00:05:41.699Z,77.44
2019-05-03T00:08:12.639Z,77.72
2019-05-03T00:10:42.674Z,78.71
2019-05-03T00:13:12.653Z,78.41
2019-05-03T00:15:54.319Z,78.87
2019-05-03T00:18:23.911Z,77.64
2019-05-03T00:20:53.297Z,78.00
2019-05-03T00:23:22.995Z,78.51
2019-05-03T00:25:52.680Z,78.47
2019-05-03T00:28:22.073Z,79.28
2019-05-03T00:30:51.957Z,79.08
2019-05-03T00:33:22.525Z,79.80
2019-05-03T00:36:22.183Z,80.19
2019-05-03T00:38:53.422Z,79.73
2019-05-03T00:41:22.827Z,80.06
2019-05-03T00:43:52.203Z,81.13
2019-05-03T00:46:22.056Z,81.39
2019-05-03T00:48:52.484Z,81.63
2019-05-03T00:51:22.609Z,80.93
2019-05-03T00:53:53.243Z,81.88
2019-05-03T00:56:22.662Z,81.27
2019-05-03T00:58:58.480Z,81.68
2019-05-03T01:01:27.865Z,81.76
2019-05-03T01:03:57.248Z,82.04
2019-05-03T01:06:26.651Z,81.74
2019-05-03T01:08:56.029Z,82.54
2019-05-03T01:11:25.416Z,82.67
2019-05-03T01:13:54.816Z,82.41
2019-05-03T01:16:25.191Z,83.42
2019-05-03T01:18:54.756Z,83.88
2019-05-03T01:21:24.208Z,84.51
2019-05-03T01:23:53.604Z,88.37
2019-05-03T01:26:23.016Z,89.79
2019-05-03T01:28:52.714Z,89.97
2019-05-03T01:31:22.740Z,89.57
2019-05-03T01:33:52.455Z,89.60
2019-05-03T01:36:22.928Z,90.49
2019-05-03T01:38:53.267Z,90.44
2019-05-03T01:41:22.909Z,91.05
2019-05-03T01:43:52.890Z,90.41
2019-05-03T01:46:22.773Z,91.10
2019-05-03T01:49:12.285Z,90.89
2019-05-03T01:52:07.076Z,90.52
2019-05-03T01:54:36.575Z,89.56
2019-05-03T01:57:06.005Z,89.37
2019-05-03T01:59:35.461Z,89.86
2019-05-03T02:02:32.739Z,90.05
2019-05-03T02:05:32.095Z,91.18
2019-05-03T02:08:02.113Z,91.14
2019-05-03T02:10:32.194Z,90.12
2019-05-03T02:13:01.801Z,90.53
2019-05-03T02:15:32.666Z,90.33
2019-05-03T02:18:02.634Z,91.20
2019-05-03T02:20:32.481Z,91.15
2019-05-03T02:23:02.731Z,89.31
2019-05-03T02:25:32.503Z,90.16
2019-05-03T02:28:02.096Z,88.42
2019-05-03T02:30:33.174Z,89.02
2019-05-03T02:33:04.189Z,88.72
2019-05-03T02:35:33.843Z,88.00
2019-05-03T02:38:03.766Z,88.13
2019-05-03T02:40:33.999Z,88.04
2019-05-03T02:43:28.532Z,88.76
2019-05-03T02:46:28.948Z,88.76
2019-05-03T02:49:25.545Z,88.28
2019-05-03T02:51:55.496Z,88.03
2019-05-03T02:54:26.934Z,89.24
2019-05-03T02:56:56.165Z,89.42
2019-05-03T02:59:26.445Z,88.89
2019-05-03T03:01:56.653Z,88.52
2019-05-03T03:04:27.266Z,87.90
2019-05-03T03:06:58.915Z,88.98
2019-05-03T03:09:29.250Z,88.47
2019-05-03T03:12:01.784Z,88.11
2019-05-03T03:14:36.006Z,87.67
2019-05-03T03:17:07.123Z,89.32
2019-05-03T03:19:38.473Z,88.23
2019-05-03T03:22:11.186Z,88.30
2019-05-03T03:24:45.840Z,88.67
2019-05-03T03:27:18.353Z,87.18
2019-05-03T03:29:51.399Z,87.18
2019-05-03T03:32:29.029Z,88.30
2019-05-03T03:35:19.715Z,88.29
2019-05-03T03:37:46.180Z,87.61
2019-05-03T03:40:18.582Z,87.51
2019-05-03T03:42:51.081Z,87.91
2019-05-03T03:45:20.462Z,88.32
2019-05-03T03:47:56.378Z,89.29
2019-05-03T03:50:26.227Z,89.37
2019-05-03T03:52:56.944Z,89.41
2019-05-03T03:55:28.512Z,89.82
2019-05-03T03:57:58.494Z,90.78
2019-05-03T04:00:28.215Z,89.56
2019-05-03T04:02:57.771Z,89.46
2019-05-03T04:05:27.154Z,89.27
2019-05-03T04:07:56.950Z,90.69
2019-05-03T04:10:27.162Z,88.45
2019-05-03T04:12:57.704Z,88.78
2019-05-03T04:15:48.280Z,87.15
2019-05-03T04:18:36.116Z,89.34
2019-05-03T04:21:06.079Z,85.92
2019-05-03T04:23:36.030Z,85.51
2019-05-03T04:26:07.043Z,86.01
2019-05-03T04:28:37.294Z,86.61
2019-05-03T04:31:06.683Z,85.64
2019-05-03T04:33:36.164Z,85.64
2019-05-03T04:36:05.852Z,87.25
2019-05-03T04:38:35.777Z,86.51
2019-05-03T04:41:06.101Z,86.05
2019-05-03T04:43:35.858Z,85.21
2019-05-03T04:46:26.018Z,85.21
2019-05-03T04:48:56.416Z,85.69
2019-05-03T04:51:26.259Z,85.87
2019-05-03T04:54:16.114Z,86.08
2019-05-03T04:56:46.466Z,86.60
2019-05-03T04:59:16.232Z,85.97
2019-05-03T05:01:46.189Z,85.97
2019-05-03T05:04:16.281Z,85.04
2019-05-03T05:06:45.734Z,85.34
2019-05-03T05:09:15.695Z,84.97
2019-05-03T05:11:45.811Z,84.79
2019-05-03T05:14:15.605Z,84.81
2019-05-03T05:16:46.609Z,83.67
2019-05-03T05:19:19.541Z,83.67
2019-05-03T05:21:54.938Z,83.67
2019-05-03T05:24:25.568Z,83.53
2019-05-03T05:27:20.104Z,82.89
2019-05-03T05:29:49.601Z,83.15
2019-05-03T05:32:19.085Z,83.57
2019-05-03T05:34:48.486Z,82.72
2019-05-03T05:37:17.880Z,83.06
2019-05-03T05:39:47.282Z,81.79
2019-05-03T05:42:16.675Z,81.79
2019-05-03T05:44:46.063Z,82.71
2019-05-03T05:47:34.650Z,82.92
2019-05-03T05:50:11.325Z,83.38
2019-05-03T05:52:40.803Z,84.02
2019-05-03T05:55:47.738Z,81.96
2019-05-03T05:58:20.698Z,83.06
2019-05-03T06:00:57.030Z,83.06
2019-05-03T06:03:26.450Z,83.64
2019-05-03T06:05:57.497Z,83.84
2019-05-03T06:08:45.824Z,83.93
2019-05-03T06:11:26.063Z,83.93
2019-05-03T06:14:17.662Z,84.32
2019-05-03T06:17:00.840Z,83.81
2019-05-03T06:19:49.166Z,84.03
2019-05-03T06:22:29.226Z,83.72
2019-05-03T06:25:06.397Z,82.73
2019-05-03T06:27:37.458Z,82.98
2019-05-03T06:30:16.976Z,82.98
2019-05-03T06:32:46.383Z,82.22
2019-05-03T06:35:15.763Z,82.32
2019-05-03T06:37:46.057Z,81.18
2019-05-03T06:40:15.634Z,82.00
2019-05-03T06:42:52.300Z,82.00
2019-05-03T06:45:16.473Z,81.15
2019-05-03T06:47:49.881Z,81.15
2019-05-03T06:50:19.643Z,82.03
2019-05-03T06:52:48.336Z,82.84
2019-05-03T06:55:17.740Z,82.84
2019-05-03T06:57:49.740Z,85.95
2019-05-03T07:00:38.390Z,88.65
2019-05-03T07:03:21.639Z,89.69
2019-05-03T07:06:08.583Z,92.13
2019-05-03T07:08:54.936Z,91.23
2019-05-03T07:11:24.794Z,91.18
2019-05-03T07:13:55.006Z,91.18
2019-05-03T07:16:25.289Z,91.67
2019-05-03T07:18:58.117Z,92.13
2019-05-03T07:21:26.098Z,82.41
2019-05-03T07:23:55.506Z,82.41
2019-05-03T07:26:25.503Z,79.28
2019-05-03T07:28:54.996Z,77.01
2019-05-03T07:31:25.570Z,77.01
2019-05-03T07:33:55.252Z,76.56
2019-05-03T07:36:28.080Z,75.58
2019-05-03T07:38:55.786Z,76.67
2019-05-03T07:41:27.212Z,75.87
2019-05-03T07:43:56.323Z,76.35
2019-05-03T07:46:25.708Z,77.09
2019-05-03T07:48:55.076Z,78.48
2019-05-03T07:51:24.991Z,78.48
2019-05-03T07:53:55.527Z,77.91
2019-05-03T07:56:29.436Z,74.83
2019-05-03T07:59:05.650Z,74.83
2019-05-03T08:01:36.117Z,75.22
2019-05-03T08:04:06.258Z,72.46
2019-05-03T08:06:35.828Z,72.46
2019-05-03T08:09:10.335Z,71.05
2019-05-03T08:11:39.913Z,71.05
2019-05-03T08:14:09.359Z,70.72
2019-05-03T08:16:38.832Z,71.24
2019-05-03T08:19:08.230Z,70.08
2019-05-03T08:21:38.764Z,70.08
2019-05-03T08:24:08.598Z,70.35
2019-05-03T08:26:37.974Z,70.76
2019-05-03T08:29:16.160Z,69.62
2019-05-03T08:32:00.278Z,67.55
2019-05-03T08:34:55.588Z,67.82
2019-05-03T08:37:29.851Z,66.96
2019-05-03T08:39:59.588Z,67.65
2019-05-03T08:42:29.044Z,66.35
2019-05-03T08:44:58.644Z,66.09
2019-05-03T08:47:28.174Z,63.57
2019-05-03T08:50:00.066Z,65.47
2019-05-03T08:52:29.461Z,65.21
2019-05-03T08:54:59.015Z,64.14
2019-05-03T08:57:28.422Z,63.69
2019-05-03T08:59:58.193Z,63.21
2019-05-03T09:02:27.602Z,63.82
2019-05-03T09:04:56.987Z,64.15
2019-05-03T09:07:26.502Z,65.20
2019-05-03T09:10:12.227Z,65.76
2019-05-03T09:12:57.810Z,64.37
2019-05-03T09:15:27.226Z,62.94
2019-05-03T09:17:56.889Z,62.86
2019-05-03T09:20:26.283Z,60.91
2019-05-03T09:22:56.022Z,61.31
2019-05-03T09:25:25.433Z,62.30
2019-05-03T09:27:55.270Z,62.26
2019-05-03T09:30:25.203Z,64.33
2019-05-03T09:32:55.714Z,63.22
2019-05-03T09:35:32.144Z,64.11
2019-05-03T09:37:56.572Z,63.59
2019-05-03T09:40:26.091Z,65.22
2019-05-03T09:42:55.458Z,65.98
2019-05-03T09:45:24.822Z,64.27
2019-05-03T09:47:55.169Z,62.29
2019-05-03T09:50:24.870Z,63.60
2019-05-03T09:52:55.433Z,63.97
2019-05-03T09:55:30.308Z,58.74
2019-05-03T09:58:00.036Z,59.68
2019-05-03T10:00:29.410Z,60.63
2019-05-03T10:02:59.035Z,57.95
2019-05-03T10:05:28.385Z,59.11
2019-05-03T10:07:57.946Z,57.38
2019-05-03T10:10:27.422Z,55.56
2019-05-03T10:12:58.357Z,55.29
2019-05-03T10:15:41.360Z,55.48
2019-05-03T10:18:14.099Z,54.04
2019-05-03T10:20:44.655Z,54.84
2019-05-03T10:23:33.109Z,54.39
2019-05-03T10:26:02.462Z,55.39
2019-05-03T10:28:31.970Z,54.01
2019-05-03T10:31:01.640Z,53.98
2019-05-03T10:33:35.758Z,54.16
2019-05-03T10:36:05.608Z,51.91
2019-05-03T10:38:35.038Z,51.92
2019-05-03T10:41:05.821Z,51.79
2019-05-03T10:43:35.607Z,51.04
2019-05-03T10:46:06.692Z,50.62
2019-05-03T10:48:36.237Z,50.04
2019-05-03T10:51:05.857Z,50.19
2019-05-03T10:53:38.544Z,47.18
2019-05-03T10:56:26.747Z,46.06
2019-05-03T10:59:03.484Z,47.21
2019-05-03T11:01:55.093Z,47.65
2019-05-03T11:04:25.600Z,47.64
2019-05-03T11:06:55.277Z,48.33
2019-05-03T11:09:25.943Z,47.69
2019-05-03T11:11:55.775Z,47.31
2019-05-03T11:14:25.638Z,46.93
2019-05-03T11:16:55.409Z,47.52
2019-05-03T11:19:25.502Z,47.57
2019-05-03T11:21:55.154Z,49.23
2019-05-03T11:24:27.134Z,46.98
2019-05-03T11:27:00.044Z,46.45
2019-05-03T11:29:29.124Z,45.12
2019-05-03T11:32:20.294Z,46.24
2019-05-03T11:34:59.097Z,46.00
2019-05-03T11:37:45.520Z,47.04
2019-05-03T11:40:15.684Z,46.07
2019-05-03T11:42:45.433Z,46.51
2019-05-03T11:45:15.379Z,45.89
2019-05-03T11:47:45.647Z,46.92
2019-05-03T11:50:15.679Z,45.87
2019-05-03T11:52:47.090Z,47.93
2019-05-03T11:55:16.401Z,43.55
2019-05-03T11:57:45.773Z,42.65
2019-05-03T12:00:19.957Z,41.53
2019-05-03T12:03:10.730Z,42.57
2019-05-03T12:05:41.673Z,43.44
2019-05-03T12:08:11.072Z,44.37
2019-05-03T12:10:52.980Z,43.42
2019-05-03T12:13:20.611Z,45.37
2019-05-03T12:15:50.046Z,45.92
2019-05-03T12:18:19.695Z,47.04
2019-05-03T12:20:50.141Z,47.10
2019-05-03T12:23:20.667Z,47.28
2019-05-03T12:25:51.523Z,47.82
2019-05-03T12:28:21.348Z,48.05
2019-05-03T12:30:50.756Z,48.80
2019-05-03T12:33:20.135Z,48.56
2019-05-03T12:35:49.487Z,48.65
2019-05-03T12:38:18.889Z,47.58
2019-05-03T12:40:48.282Z,48.01
2019-05-03T12:43:17.691Z,46.42
2019-05-03T12:45:47.086Z,46.05
2019-05-03T12:48:16.589Z,45.78
2019-05-03T12:50:46.926Z,46.70
2019-05-03T12:53:16.789Z,47.07
2019-05-03T12:55:46.254Z,46.78
2019-05-03T12:58:15.869Z,46.53
2019-05-03T13:01:04.958Z,47.57
2019-05-03T13:03:41.265Z,47.67
2019-05-03T13:06:10.627Z,48.17
2019-05-03T13:08:45.576Z,48.82
2019-05-03T13:11:15.215Z,48.33
2019-05-03T13:13:45.294Z,48.46
2019-05-03T13:16:18.443Z,49.32
2019-05-03T13:18:47.915Z,50.12
2019-05-03T13:21:17.538Z,50.44
2019-05-03T13:23:46.903Z,50.95
2019-05-03T13:26:16.473Z,51.22
2019-05-03T13:28:45.846Z,51.81
2019-05-03T13:31:16.150Z,50.57
2019-05-03T13:33:45.679Z,50.67
2019-05-03T13:36:15.279Z,50.91
2019-05-03T13:38:45.344Z,50.64
2019-05-03T13:41:14.779Z,50.43
2019-05-03T13:43:46.583Z,50.31
2019-05-03T13:46:16.042Z,51.39
2019-05-03T13:48:48.850Z,50.39
2019-05-03T13:51:20.354Z,50.20
2019-05-03T13:53:49.978Z,49.76
2019-05-03T13:56:19.343Z,50.31
2019-05-03T13:58:48.722Z,49.52
2019-05-03T14:01:18.355Z,49.51
2019-05-03T14:03:47.813Z,50.94
2019-05-03T14:06:17.232Z,49.62
2019-05-03T14:08:46.610Z,50.04
2019-05-03T14:11:16.002Z,49.45
2019-05-03T14:13:45.673Z,50.70
2019-05-03T14:16:15.057Z,52.82
2019-05-03T14:18:46.993Z,52.14
2019-05-03T14:21:21.474Z,51.79
2019-05-03T14:24:08.672Z,52.37
2019-05-03T14:26:38.406Z,52.17
2019-05-03T14:29:07.935Z,51.95
2019-05-03T14:31:37.348Z,53.09
2019-05-03T14:34:06.769Z,52.84
2019-05-03T14:36:36.154Z,52.92
2019-05-03T14:39:09.743Z,54.13
2019-05-03T14:41:38.911Z,52.92
2019-05-03T14:44:08.295Z,52.67
2019-05-03T14:46:37.772Z,53.57
2019-05-03T14:49:07.179Z,53.81
2019-05-03T14:51:36.545Z,53.86
2019-05-03T14:54:06.981Z,53.48
2019-05-03T14:56:45.752Z,52.80
2019-05-03T14:59:34.609Z,52.49
2019-05-03T15:02:20.417Z,52.10
2019-05-03T15:04:49.853Z,51.84
2019-05-03T15:07:19.255Z,52.77
2019-05-03T15:09:48.634Z,52.01
2019-05-03T15:12:18.149Z,52.16
2019-05-03T15:14:47.541Z,52.23
2019-05-03T15:17:16.930Z,52.07
2019-05-03T15:19:46.303Z,51.24
2019-05-03T15:22:15.700Z,51.92
2019-05-03T15:24:45.180Z,51.08
2019-05-03T15:27:14.542Z,51.28
2019-05-03T15:29:44.840Z,51.34
2019-05-03T15:32:15.462Z,52.26
2019-05-03T15:34:45.218Z,50.35
2019-05-03T15:37:14.948Z,50.21
2019-05-03T15:39:45.699Z,50.08
2019-05-03T15:42:15.541Z,51.00
2019-05-03T15:45:05.276Z,49.88
2019-05-03T15:47:43.265Z,50.59
2019-05-03T15:50:12.870Z,49.75
2019-05-03T15:52:44.369Z,50.31
2019-05-03T15:55:15.228Z,51.03
2019-05-03T15:57:44.946Z,50.19
2019-05-03T16:00:16.725Z,49.92
2019-05-03T16:02:46.314Z,50.42
2019-05-03T16:05:15.722Z,50.89
2019-05-03T16:07:45.063Z,50.86
2019-05-03T16:10:15.386Z,51.14
2019-05-03T16:12:45.062Z,49.69
2019-05-03T16:15:14.355Z,49.77
2019-05-03T16:17:44.929Z,48.98
2019-05-03T16:20:14.952Z,50.44
2019-05-03T16:22:46.406Z,51.14
2019-05-03T16:25:15.823Z,49.86
2019-05-03T16:28:10.048Z,49.53
2019-05-03T16:30:56.721Z,50.53
2019-05-03T16:33:28.193Z,52.00
2019-05-03T16:35:57.231Z,51.69
2019-05-03T16:38:26.656Z,51.98
2019-05-03T16:40:56.016Z,51.90
2019-05-03T16:43:25.762Z,52.96
2019-05-03T16:45:55.345Z,50.62
2019-05-03T16:48:24.866Z,50.12
2019-05-03T16:50:54.502Z,49.04
2019-05-03T16:53:25.514Z,49.69
2019-05-03T16:55:54.969Z,48.55
2019-05-03T16:58:24.746Z,48.70
2019-05-03T17:00:55.302Z,48.19
2019-05-03T17:03:38.180Z,48.79
2019-05-03T17:06:19.335Z,48.87
2019-05-03T17:09:05.337Z,48.25
2019-05-03T17:11:34.814Z,48.47
2019-05-03T17:14:05.008Z,48.37
2019-05-03T17:16:34.580Z,48.18
2019-05-03T17:19:05.835Z,47.42
2019-05-03T17:21:35.376Z,47.28
2019-05-03T17:24:06.307Z,47.29
2019-05-03T17:26:36.179Z,46.37
2019-05-03T17:29:05.604Z,46.58
2019-05-03T17:31:35.322Z,45.92
2019-05-03T17:34:05.560Z,45.09
2019-05-03T17:36:35.013Z,46.58
2019-05-03T17:39:09.026Z,46.46
2019-05-03T17:41:56.182Z,47.72
2019-05-03T17:44:30.011Z,49.34
2019-05-03T17:46:59.406Z,50.39
2019-05-03T17:49:28.823Z,51.11
2019-05-03T17:52:20.382Z,51.80
2019-05-03T17:55:08.725Z,51.33
2019-05-03T17:57:57.058Z,51.60
2019-05-03T18:00:36.187Z,52.11
2019-05-03T18:03:06.750Z,54.41
2019-05-03T18:05:44.989Z,54.71
2019-05-03T18:08:30.783Z,54.95
2019-05-03T18:11:06.719Z,56.04
2019-05-03T18:13:36.214Z,56.68
2019-05-03T18:16:08.797Z,57.33
2019-05-03T18:18:38.183Z,55.47
2019-05-03T18:21:07.604Z,54.42
2019-05-03T18:23:36.973Z,54.72
2019-05-03T18:26:06.412Z,55.93
2019-05-03T18:28:35.827Z,55.67
2019-05-03T18:31:08.564Z,55.29
2019-05-03T18:33:36.682Z,55.52
2019-05-03T18:36:06.056Z,56.58
2019-05-03T18:38:39.829Z,56.87
2019-05-03T18:41:11.433Z,55.92
2019-05-03T18:43:59.761Z,56.13
2019-05-03T18:46:40.050Z,56.25
2019-05-03T18:49:09.426Z,56.48
2019-05-03T18:51:39.019Z,57.78
2019-05-03T18:54:08.397Z,57.21
2019-05-03T18:56:37.779Z,56.43
2019-05-03T18:59:07.530Z,56.36
2019-05-03T19:01:37.065Z,56.97
2019-05-03T19:04:15.096Z,55.76
2019-05-03T19:06:45.173Z,57.14
2019-05-03T19:09:34.517Z,56.15
2019-05-03T19:12:21.966Z,57.39
2019-05-03T19:14:51.423Z,57.06
2019-05-03T19:17:30.847Z,56.17
2019-05-03T19:20:00.384Z,55.62
2019-05-03T19:22:30.036Z,55.20
2019-05-03T19:24:59.553Z,56.45
2019-05-03T19:27:28.937Z,57.13
2019-05-03T19:29:58.445Z,57.71
2019-05-03T19:32:28.306Z,57.63
2019-05-03T19:34:58.435Z,58.39
2019-05-03T19:37:28.002Z,59.48
2019-05-03T19:39:57.497Z,61.50
2019-05-03T19:42:27.403Z,61.25
2019-05-03T19:44:56.838Z,61.64
2019-05-03T19:47:26.343Z,60.84
2019-05-03T19:49:55.730Z,61.91
2019-05-03T19:52:28.301Z,62.23
2019-05-03T19:54:57.683Z,62.67
2019-05-03T19:57:32.320Z,62.62
2019-05-03T20:00:01.698Z,63.45
2019-05-03T20:02:56.143Z,63.50
2019-05-03T20:05:50.575Z,64.45
2019-05-03T20:08:27.042Z,64.76
2019-05-03T20:11:15.500Z,64.31
2019-05-03T20:13:45.560Z,61.74
2019-05-03T20:16:15.508Z,60.45
2019-05-03T20:18:45.711Z,59.58
2019-05-03T20:21:15.370Z,60.48
2019-05-03T20:23:47.054Z,58.59
2019-05-03T20:26:15.898Z,58.41
2019-05-03T20:28:45.287Z,57.07
2019-05-03T20:31:14.859Z,56.57
2019-05-03T20:33:45.789Z,57.74
2019-05-03T20:36:15.355Z,58.14
2019-05-03T20:38:44.730Z,57.01
2019-05-03T20:41:14.806Z,57.00
2019-05-03T20:43:55.669Z,57.16
2019-05-03T20:46:29.945Z,57.23
2019-05-03T20:49:04.345Z,57.82
2019-05-03T20:51:34.581Z,58.08
2019-05-03T20:54:04.911Z,57.14
2019-05-03T20:56:34.467Z,57.22
2019-05-03T20:59:05.465Z,57.58
2019-05-03T21:01:35.941Z,57.80
2019-05-03T21:04:06.259Z,58.45
2019-05-03T21:06:36.031Z,59.74
2019-05-03T21:09:08.419Z,59.57
2019-05-03T21:11:38.372Z,58.67
2019-05-03T21:14:08.348Z,58.46
2019-05-03T21:16:54.675Z,59.45
2019-05-03T21:19:40.825Z,60.36
2019-05-03T21:22:14.456Z,57.86
2019-05-03T21:25:01.845Z,58.31
2019-05-03T21:27:31.264Z,58.65
2019-05-03T21:30:00.665Z,58.34
2019-05-03T21:32:30.067Z,59.84
2019-05-03T21:34:59.474Z,60.36
2019-05-03T21:37:29.039Z,61.49
2019-05-03T21:39:58.536Z,61.49
2019-05-03T21:42:31.019Z,62.08
2019-05-03T21:45:02.080Z,64.74
2019-05-03T21:47:50.352Z,64.74
2019-05-03T21:50:20.822Z,64.47
2019-05-03T21:52:50.223Z,65.20
2019-05-03T21:55:19.617Z,65.20
2019-05-03T21:57:49.033Z,65.27
2019-05-03T22:00:20.094Z,66.31
2019-05-03T22:02:50.001Z,66.31
2019-05-03T22:05:19.400Z,67.04
2019-05-03T22:07:48.923Z,67.04
2019-05-03T22:10:19.143Z,67.60
2019-05-03T22:12:48.542Z,67.99
2019-05-03T22:15:26.482Z,67.99
2019-05-03T22:18:06.081Z,68.98
2019-05-03T22:20:54.933Z,68.98
2019-05-03T22:23:45.277Z,69.77
2019-05-03T22:26:15.443Z,69.57
2019-05-03T22:28:45.042Z,69.57
2019-05-03T22:31:15.325Z,69.60
2019-05-03T23:54:06.459Z,70.44
2019-05-03T23:56:36.153Z,70.31
2019-05-03T23:59:05.650Z,70.23
